Cotes De La Manche — FQBE — position and weather

sailwx.info

Track history (hours):
 
Tides and Currents Weather Stations Pressure Air Temp Water Temp Dewpoint Dewpoint Depression Visibility Wind Speed Wind Dir Waves Ship Positions

Cotes De La Manche

Last reported at 2017-Sep-21 01:11 UTC. Time now 2017-Sep-21 19:52 UTC.
Position N 49°38' W 001°37'.

Length 25 m; draft 3.7 m.

Type: . MMSI: 227091000.

Date/timePositionNaut miles runAvg speedWind from/ knotsBaromVisibWave heightAir tempDewpointWater temp
2017-Sep-21 01:11N 49°38' W 001°37'0 0.0
2017-Sep-21 01:00N 49°38' W 001°37'0 0.0
2017-Sep-21 00:30N 49°38' W 001°37'0 0.0
2017-Sep-21 00:00N 49°38' W 001°37'0 0.0
2017-Sep-20 23:30N 49°38' W 001°37'0 0.0
2017-Sep-20 23:00N 49°38' W 001°37'0 0.0
2017-Sep-20 22:30N 49°38' W 001°37'0 0.0
2017-Sep-20 22:00N 49°38' W 001°37'0 0.0
2017-Sep-20 21:30N 49°38' W 001°37'0 0.0
2017-Sep-20 21:00N 49°38' W 001°37'0 0.0
2017-Sep-20 20:30N 49°38' W 001°37'0 0.0
2017-Sep-20 20:00N 49°38' W 001°37'0 0.0
2017-Sep-20 19:30N 49°38' W 001°37'0 0.8
2017-Sep-20 19:00N 49°39' W 001°37'0 0.8
2017-Sep-20 18:30N 49°39' W 001°37'0 0.0
2017-Sep-20 18:00N 49°39' W 001°37'0 0.0
2017-Sep-20 17:30N 49°39' W 001°37'0 0.0
2017-Sep-20 17:00N 49°39' W 001°37'0 0.0
2017-Sep-20 16:30N 49°39' W 001°37'0 0.0
2017-Sep-20 16:00N 49°39' W 001°37'0 0.0
2017-Sep-20 15:30N 49°39' W 001°37'0 0.0
2017-Sep-20 15:00N 49°39' W 001°37'0 0.0
2017-Sep-20 14:00N 49°39' W 001°37'0 0.0
2017-Sep-20 13:30N 49°39' W 001°37'0 0.1
2017-Sep-20 13:00N 49°39' W 001°37'4 7.7
2017-Sep-20 12:30N 49°41' W 001°42'3 6.8
2017-Sep-20 12:00N 49°43' W 001°46'3 6.1
2017-Sep-20 11:26N 49°44' W 001°51'8 5.4
2017-Sep-20 10:01N 49°41' W 002°02'0 4.0
2017-Sep-20 10:00N 49°41' W 002°02'0 0.8
2017-Sep-20 09:30N 49°41' W 002°02'0 0.3
2017-Sep-20 08:52N 49°41' W 002°02'1 3.1
2017-Sep-20 08:31N 49°42' W 002°01'2 4.1
2017-Sep-20 08:00N 49°44' W 002°00'2 3.6
2017-Sep-20 07:30N 49°45' W 001°58'4 7.8
2017-Sep-20 07:00N 49°45' W 001°52'3 6.4
2017-Sep-20 06:30N 49°44' W 001°47'4 7.1
2017-Sep-20 06:00N 49°42' W 001°42'4 7.5
2017-Sep-20 05:30N 49°40' W 001°37'0 0.0
2017-Sep-20 05:00N 49°40' W 001°37'0 0.0
2017-Sep-20 04:30N 49°40' W 001°37'0 0.0
2017-Sep-20 04:00N 49°40' W 001°37'0 0.0
2017-Sep-20 03:30N 49°40' W 001°37'0 0.0
2017-Sep-20 03:01N 49°40' W 001°37'0 0.0
2017-Sep-20 02:31N 49°40' W 001°37'0 0.0
2017-Sep-20 02:00N 49°40' W 001°37'0 0.0
2017-Sep-20 01:30N 49°40' W 001°37'0 0.0
2017-Sep-20 01:00N 49°40' W 001°37'0 0.0
2017-Sep-20 00:30N 49°40' W 001°37'0 0.0
2017-Sep-20 00:00N 49°40' W 001°37'0 0.0
2017-Sep-19 23:30N 49°40' W 001°37'0 0.0
2017-Sep-19 23:00N 49°40' W 001°37'0 0.0
2017-Sep-19 22:30N 49°40' W 001°37'0 0.0
2017-Sep-19 22:00N 49°40' W 001°37'0 0.0
2017-Sep-19 21:30N 49°40' W 001°37'0 0.0
2017-Sep-19 21:00N 49°40' W 001°37'0 0.0
2017-Sep-19 20:30N 49°40' W 001°37'0 0.0
2017-Sep-19 20:00N 49°40' W 001°37'0 0.0
2017-Sep-19 19:30N 49°40' W 001°37'0 0.0
2017-Sep-19 19:00N 49°40' W 001°37'0 0.0
2017-Sep-19 18:30N 49°40' W 001°37'0 0.0
2017-Sep-19 18:00N 49°40' W 001°37'0 0.0
2017-Sep-19 17:30N 49°40' W 001°37'1 1.9
2017-Sep-19 17:00N 49°40' W 001°39'611.7
2017-Sep-19 16:30N 49°43' W 001°47'5 0.2
2017-Sep-18 11:00N 49°45' W 001°55'4 8.3
2017-Sep-18 10:30N 49°44' W 001°49'4 7.8
2017-Sep-18 10:00N 49°42' W 001°43'4 8.0
2017-Sep-18 09:30N 49°40' W 001°38'1 2.2
2017-Sep-18 09:00N 49°39' W 001°37'0 0.0
2017-Sep-18 08:30N 49°39' W 001°37'0 0.0
2017-Sep-18 08:01N 49°39' W 001°37'0 0.0
2017-Sep-18 07:30N 49°39' W 001°37'0 0.0
2017-Sep-18 07:00N 49°39' W 001°37'0 0.0
2017-Sep-18 06:30N 49°39' W 001°37'0 0.0
2017-Sep-18 06:00N 49°39' W 001°37'0 0.0
2017-Sep-18 05:30N 49°39' W 001°37'0 0.0
2017-Sep-18 05:00N 49°39' W 001°37'0 0.0
2017-Sep-18 04:30N 49°39' W 001°37'0 0.0
2017-Sep-18 04:00N 49°39' W 001°37'0 0.0
2017-Sep-18 03:30N 49°39' W 001°37'0 0.0
2017-Sep-18 03:00N 49°39' W 001°37'0 0.0
2017-Sep-18 02:30N 49°39' W 001°37'0 0.0
2017-Sep-18 02:00N 49°39' W 001°37'0 0.0
2017-Sep-18 01:30N 49°39' W 001°37'0 0.0
2017-Sep-18 01:00N 49°39' W 001°37'0 0.0
2017-Sep-18 00:30N 49°39' W 001°37'0 0.0
2017-Sep-18 00:00N 49°39' W 001°37'0 0.0
2017-Sep-17 23:30N 49°39' W 001°37'0 0.0
2017-Sep-17 23:00N 49°39' W 001°37'0 0.0
2017-Sep-17 22:30N 49°39' W 001°37'0 0.0
2017-Sep-17 22:00N 49°39' W 001°37'0 0.0
2017-Sep-17 21:30N 49°39' W 001°37'0 0.0
2017-Sep-17 21:00N 49°39' W 001°37'0 0.0
2017-Sep-17 20:30N 49°39' W 001°37'0 0.0
2017-Sep-17 20:00N 49°39' W 001°37'0 0.0
2017-Sep-17 19:30N 49°39' W 001°37'0 0.0
2017-Sep-17 19:00N 49°39' W 001°37'0 0.0
2017-Sep-17 18:30N 49°39' W 001°37'0 0.0
2017-Sep-17 18:00N 49°39' W 001°37'0 0.0
2017-Sep-17 17:30N 49°39' W 001°37'0 0.0
2017-Sep-17 17:00N 49°39' W 001°37'0 0.0
2017-Sep-17 16:30N 49°39' W 001°37'0 0.0
2017-Sep-17 16:00N 49°39' W 001°37'0 0.0
2017-Sep-17 15:30N 49°39' W 001°37'0 0.0
2017-Sep-17 15:00N 49°39' W 001°37'0 0.0
2017-Sep-17 14:30N 49°39' W 001°37'0 0.0
2017-Sep-17 14:00N 49°39' W 001°37'0 0.0
2017-Sep-17 13:30N 49°39' W 001°37'0 0.0
2017-Sep-17 13:00N 49°39' W 001°37'0 0.0
2017-Sep-17 12:30N 49°39' W 001°37'0 0.0
2017-Sep-17 12:01N 49°39' W 001°37'0 0.0
2017-Sep-17 11:30N 49°39' W 001°37'0 0.0
2017-Sep-17 11:00N 49°39' W 001°37'0 0.0
2017-Sep-17 10:30N 49°39' W 001°37'0 0.0
2017-Sep-17 10:00N 49°39' W 001°37'0 0.0
2017-Sep-17 09:30N 49°39' W 001°37'0 0.0
2017-Sep-17 09:00N 49°39' W 001°37'0 0.0
2017-Sep-17 08:30N 49°39' W 001°37'0 0.0
2017-Sep-17 08:00N 49°39' W 001°37'0 0.0
2017-Sep-17 07:30N 49°39' W 001°37'0 0.0
2017-Sep-17 07:01N 49°39' W 001°37'0 0.0
2017-Sep-17 06:31N 49°39' W 001°37'0 0.0
2017-Sep-17 06:00N 49°39' W 001°37'0 0.0
2017-Sep-17 05:30N 49°39' W 001°37'4 7.7
2017-Sep-17 05:00N 49°42' W 001°41'2 3.7
2017-Sep-17 04:30N 49°43' W 001°43'2 4.1
2017-Sep-17 04:00N 49°44' W 001°46'2 4.7
2017-Sep-17 03:30N 49°45' W 001°49'2 4.9
2017-Sep-17 03:00N 49°46' W 001°53'123 7.7
2017-Sep-16 11:05N 48°41' W 004°34'111.1
2017-Sep-16 11:00N 48°41' W 004°35'510.9
2017-Sep-16 10:30N 48°39' W 004°43'510.8
2017-Sep-16 10:00N 48°36' W 004°49'510.4
2017-Sep-16 09:31N 48°30' W 004°50'510.3
2017-Sep-16 09:00N 48°25' W 004°50'611.5
2017-Sep-16 08:30N 48°20' W 004°48'510.3
2017-Sep-16 08:00N 48°15' W 004°46'510.1
2017-Sep-16 07:31N 48°10' W 004°46'510.1
2017-Sep-16 07:00N 48°05' W 004°46'510.1
2017-Sep-16 06:30N 47°60' W 004°43'43 9.4
2017-Sep-16 01:56N 47°34' W 003°52'4 9.7
2017-Sep-16 01:30N 47°33' W 003°46'5 9.7
2017-Sep-16 01:01N 47°32' W 003°40'5 9.6
2017-Sep-16 00:30N 47°30' W 003°33'5 9.5
2017-Sep-16 00:01N 47°29' W 003°26'5 9.4
2017-Sep-15 23:30N 47°27' W 003°19'5 9.4
2017-Sep-15 23:00N 47°26' W 003°13'5 9.3
2017-Sep-15 22:30N 47°23' W 003°07'60 9.7
2017-Sep-15 16:19N 46°38' W 002°08'3 9.8
2017-Sep-15 16:00N 46°36' W 002°05'5 9.7
2017-Sep-15 15:30N 46°31' W 002°02'5 9.7
2017-Sep-15 15:00N 46°27' W 001°60'5 9.8
2017-Sep-15 14:30N 46°23' W 001°57'5 9.7
2017-Sep-15 14:00N 46°18' W 001°54'47 9.9
2017-Sep-15 09:17N 45°37' W 001°22'3 9.2
2017-Sep-15 08:59N 45°38' W 001°18'4 8.8
2017-Sep-15 08:30N 45°40' W 001°13'5 9.2
2017-Sep-15 07:59N 45°38' W 001°07'4 9.0
2017-Sep-15 07:30N 45°34' W 001°03'1 1.7
2017-Sep-15 06:59N 45°34' W 001°03'0 0.0
2017-Sep-15 06:25N 45°34' W 001°03'0 0.0
2017-Sep-15 06:00N 45°34' W 001°03'0 0.0
2017-Sep-15 05:31N 45°34' W 001°03'0 0.0
2017-Sep-15 05:00N 45°34' W 001°03'0 0.0
2017-Sep-15 04:31N 45°34' W 001°03'0 0.0
2017-Sep-15 04:00N 45°34' W 001°03'0 0.0
2017-Sep-15 03:30N 45°34' W 001°03'0 0.0
2017-Sep-15 03:00N 45°34' W 001°03'0 0.0
2017-Sep-15 02:31N 45°34' W 001°03'0 0.0
2017-Sep-15 01:59N 45°34' W 001°03'0 0.0
2017-Sep-15 01:31N 45°34' W 001°03'0 0.0
2017-Sep-15 01:01N 45°34' W 001°03'0 0.0
2017-Sep-15 00:30N 45°34' W 001°03'0 0.0
2017-Sep-15 00:01N 45°34' W 001°03'0 0.0
2017-Sep-14 23:30N 45°34' W 001°03'0 0.0
2017-Sep-14 23:01N 45°34' W 001°03'0 0.0
2017-Sep-14 22:30N 45°34' W 001°03'0 0.1
2017-Sep-14 22:00N 45°33' W 001°03'0 0.0
2017-Sep-14 21:31N 45°34' W 001°03'0 0.0
2017-Sep-14 21:00N 45°33' W 001°03'0 0.0
2017-Sep-14 20:30N 45°33' W 001°03'0 0.0
2017-Sep-14 20:00N 45°33' W 001°03'0 0.0
2017-Sep-14 19:30N 45°33' W 001°03'0 0.0
2017-Sep-14 19:01N 45°33' W 001°03'0 0.0
2017-Sep-14 18:30N 45°33' W 001°03'0 0.0
2017-Sep-14 18:00N 45°33' W 001°03'0 0.0
2017-Sep-14 17:31N 45°33' W 001°03'0 0.0
2017-Sep-14 17:01N 45°33' W 001°03'0 0.9
2017-Sep-14 16:30N 45°33' W 001°03'1 2.3
2017-Sep-14 16:00N 45°32' W 001°02'2 4.9
2017-Sep-14 15:31N 45°31' W 000°59'510.1
2017-Sep-14 15:00N 45°28' W 000°55'3 0.1
2017-Sep-13 15:49N 45°25' W 000°52'3 7.9
2017-Sep-13 15:29N 45°27' W 000°55'4 7.8
2017-Sep-13 15:00N 45°31' W 000°57'7 0.3
2017-Sep-12 19:35N 45°27' W 000°49'111.4
2017-Sep-12 19:30N 45°28' W 000°49'611.6
2017-Sep-12 19:01N 45°32' W 000°55'611.9
2017-Sep-12 18:30N 45°35' W 001°03'611.6
2017-Sep-12 17:59N 45°39' W 001°09'26 7.3
2017-Sep-12 14:24N 46°02' W 001°27'4 8.0
2017-Sep-12 13:53N 46°05' W 001°23'4 9.9
2017-Sep-12 13:30N 46°06' W 001°18'4 8.9
2017-Sep-12 13:01N 46°09' W 001°14'0 0.3
2017-Sep-12 12:30N 46°09' W 001°13'0 0.0
2017-Sep-12 12:00N 46°09' W 001°13'0 0.0
2017-Sep-12 11:31N 46°09' W 001°13'0 0.0
2017-Sep-12 11:01N 46°09' W 001°13'0 0.0
2017-Sep-12 10:30N 46°09' W 001°13'0 0.0
2017-Sep-12 10:00N 46°09' W 001°13'0 0.0
2017-Sep-12 09:30N 46°09' W 001°13'0 0.0
2017-Sep-12 09:00N 46°09' W 001°13'0 0.0
2017-Sep-12 08:31N 46°09' W 001°13'0 0.0
2017-Sep-12 08:00N 46°09' W 001°13'0 0.0
2017-Sep-12 07:30N 46°09' W 001°13'0 0.0
2017-Sep-12 07:01N 46°09' W 001°13'0 0.0
2017-Sep-12 06:30N 46°09' W 001°13'0 0.0
2017-Sep-12 06:00N 46°09' W 001°13'0 0.0
2017-Sep-12 05:31N 46°09' W 001°13'0 0.0
2017-Sep-12 05:01N 46°09' W 001°13'0 0.0
2017-Sep-12 04:31N 46°09' W 001°13'0 0.0
2017-Sep-12 04:00N 46°09' W 001°13'0 0.0
2017-Sep-12 03:30N 46°09' W 001°13'0 0.0
2017-Sep-12 03:01N 46°09' W 001°13'0 0.0
2017-Sep-12 02:30N 46°09' W 001°13'0 0.0
2017-Sep-12 02:00N 46°09' W 001°13'0 0.0
2017-Sep-12 01:30N 46°09' W 001°13'0 0.0
2017-Sep-12 01:00N 46°09' W 001°13'0 0.0
2017-Sep-12 00:30N 46°09' W 001°13'0 0.0
2017-Sep-12 00:00N 46°09' W 001°13'0 0.0
2017-Sep-11 23:31N 46°09' W 001°13'0 0.0
2017-Sep-11 23:01N 46°09' W 001°13'0 0.0
2017-Sep-11 22:31N 46°09' W 001°13'0 0.0
2017-Sep-11 22:01N 46°09' W 001°13'0 0.0
2017-Sep-11 21:31N 46°09' W 001°13'0 0.0
2017-Sep-11 21:00N 46°09' W 001°13'0 0.0
2017-Sep-11 20:31N 46°09' W 001°13'0 0.0
2017-Sep-11 20:01N 46°09' W 001°13'0 0.0
2017-Sep-11 19:31N 46°09' W 001°13'1 2.0
2017-Sep-11 19:01N 46°08' W 001°15'5 9.4
2017-Sep-11 18:30N 46°06' W 001°20'29 7.5
2017-Sep-11 14:38N 45°37' W 001°21'1 8.0
2017-Sep-11 14:30N 45°37' W 001°20'5 9.6
2017-Sep-11 14:00N 45°39' W 001°14'510.6
2017-Sep-11 13:30N 45°38' W 001°07'611.7
2017-Sep-11 13:00N 45°33' W 001°02'612.4
2017-Sep-11 12:30N 45°29' W 000°56'  
Track history (hours):
 
Tides and Currents Weather Stations Pressure Air Temp Water Temp Dewpoint Dewpoint Depression Visibility Wind Speed Wind Dir Waves Ship Positions

Cotes De La Manche

Last reported at 2017-Sep-21 01:11 UTC. Time now 2017-Sep-21 19:52 UTC.
Position N 49°38' W 001°37'.

Length 25 m; draft 3.7 m.

Type: . MMSI: 227091000.

Date/timePositionNaut miles runAvg speedWind from/ knotsBaromVisibWave heightAir tempDewpointWater temp
2017-Sep-21 01:11N 49°38' W 001°37'0 0.0
2017-Sep-21 01:00N 49°38' W 001°37'0 0.0
2017-Sep-21 00:30N 49°38' W 001°37'0 0.0
2017-Sep-21 00:00N 49°38' W 001°37'0 0.0
2017-Sep-20 23:30N 49°38' W 001°37'0 0.0
2017-Sep-20 23:00N 49°38' W 001°37'0 0.0
2017-Sep-20 22:30N 49°38' W 001°37'0 0.0
2017-Sep-20 22:00N 49°38' W 001°37'0 0.0
2017-Sep-20 21:30N 49°38' W 001°37'0 0.0
2017-Sep-20 21:00N 49°38' W 001°37'0 0.0
2017-Sep-20 20:30N 49°38' W 001°37'0 0.0
2017-Sep-20 20:00N 49°38' W 001°37'0 0.0
2017-Sep-20 19:30N 49°38' W 001°37'0 0.8
2017-Sep-20 19:00N 49°39' W 001°37'0 0.8
2017-Sep-20 18:30N 49°39' W 001°37'0 0.0
2017-Sep-20 18:00N 49°39' W 001°37'0 0.0
2017-Sep-20 17:30N 49°39' W 001°37'0 0.0
2017-Sep-20 17:00N 49°39' W 001°37'0 0.0
2017-Sep-20 16:30N 49°39' W 001°37'0 0.0
2017-Sep-20 16:00N 49°39' W 001°37'0 0.0
2017-Sep-20 15:30N 49°39' W 001°37'0 0.0
2017-Sep-20 15:00N 49°39' W 001°37'0 0.0
2017-Sep-20 14:00N 49°39' W 001°37'0 0.0
2017-Sep-20 13:30N 49°39' W 001°37'0 0.1
2017-Sep-20 13:00N 49°39' W 001°37'4 7.7
2017-Sep-20 12:30N 49°41' W 001°42'3 6.8
2017-Sep-20 12:00N 49°43' W 001°46'3 6.1
2017-Sep-20 11:26N 49°44' W 001°51'8 5.4
2017-Sep-20 10:01N 49°41' W 002°02'0 4.0
2017-Sep-20 10:00N 49°41' W 002°02'0 0.8
2017-Sep-20 09:30N 49°41' W 002°02'0 0.3
2017-Sep-20 08:52N 49°41' W 002°02'1 3.1
2017-Sep-20 08:31N 49°42' W 002°01'2 4.1
2017-Sep-20 08:00N 49°44' W 002°00'2 3.6
2017-Sep-20 07:30N 49°45' W 001°58'4 7.8
2017-Sep-20 07:00N 49°45' W 001°52'3 6.4
2017-Sep-20 06:30N 49°44' W 001°47'4 7.1
2017-Sep-20 06:00N 49°42' W 001°42'4 7.5
2017-Sep-20 05:30N 49°40' W 001°37'0 0.0
2017-Sep-20 05:00N 49°40' W 001°37'0 0.0
2017-Sep-20 04:30N 49°40' W 001°37'0 0.0
2017-Sep-20 04:00N 49°40' W 001°37'0 0.0
2017-Sep-20 03:30N 49°40' W 001°37'0 0.0
2017-Sep-20 03:01N 49°40' W 001°37'0 0.0
2017-Sep-20 02:31N 49°40' W 001°37'0 0.0
2017-Sep-20 02:00N 49°40' W 001°37'0 0.0
2017-Sep-20 01:30N 49°40' W 001°37'0 0.0
2017-Sep-20 01:00N 49°40' W 001°37'0 0.0
2017-Sep-20 00:30N 49°40' W 001°37'0 0.0
2017-Sep-20 00:00N 49°40' W 001°37'0 0.0
2017-Sep-19 23:30N 49°40' W 001°37'0 0.0
2017-Sep-19 23:00N 49°40' W 001°37'0 0.0
2017-Sep-19 22:30N 49°40' W 001°37'0 0.0
2017-Sep-19 22:00N 49°40' W 001°37'0 0.0
2017-Sep-19 21:30N 49°40' W 001°37'0 0.0
2017-Sep-19 21:00N 49°40' W 001°37'0 0.0
2017-Sep-19 20:30N 49°40' W 001°37'0 0.0
2017-Sep-19 20:00N 49°40' W 001°37'0 0.0
2017-Sep-19 19:30N 49°40' W 001°37'0 0.0
2017-Sep-19 19:00N 49°40' W 001°37'0 0.0
2017-Sep-19 18:30N 49°40' W 001°37'0 0.0
2017-Sep-19 18:00N 49°40' W 001°37'0 0.0
2017-Sep-19 17:30N 49°40' W 001°37'1 1.9
2017-Sep-19 17:00N 49°40' W 001°39'611.7
2017-Sep-19 16:30N 49°43' W 001°47'5 0.2
2017-Sep-18 11:00N 49°45' W 001°55'4 8.3
2017-Sep-18 10:30N 49°44' W 001°49'4 7.8
2017-Sep-18 10:00N 49°42' W 001°43'4 8.0
2017-Sep-18 09:30N 49°40' W 001°38'1 2.2
2017-Sep-18 09:00N 49°39' W 001°37'0 0.0
2017-Sep-18 08:30N 49°39' W 001°37'0 0.0
2017-Sep-18 08:01N 49°39' W 001°37'0 0.0
2017-Sep-18 07:30N 49°39' W 001°37'0 0.0
2017-Sep-18 07:00N 49°39' W 001°37'0 0.0
2017-Sep-18 06:30N 49°39' W 001°37'0 0.0
2017-Sep-18 06:00N 49°39' W 001°37'0 0.0
2017-Sep-18 05:30N 49°39' W 001°37'0 0.0
2017-Sep-18 05:00N 49°39' W 001°37'0 0.0
2017-Sep-18 04:30N 49°39' W 001°37'0 0.0
2017-Sep-18 04:00N 49°39' W 001°37'0 0.0
2017-Sep-18 03:30N 49°39' W 001°37'0 0.0
2017-Sep-18 03:00N 49°39' W 001°37'0 0.0
2017-Sep-18 02:30N 49°39' W 001°37'0 0.0
2017-Sep-18 02:00N 49°39' W 001°37'0 0.0
2017-Sep-18 01:30N 49°39' W 001°37'0 0.0
2017-Sep-18 01:00N 49°39' W 001°37'0 0.0
2017-Sep-18 00:30N 49°39' W 001°37'0 0.0
2017-Sep-18 00:00N 49°39' W 001°37'0 0.0
2017-Sep-17 23:30N 49°39' W 001°37'0 0.0
2017-Sep-17 23:00N 49°39' W 001°37'0 0.0
2017-Sep-17 22:30N 49°39' W 001°37'0 0.0
2017-Sep-17 22:00N 49°39' W 001°37'0 0.0
2017-Sep-17 21:30N 49°39' W 001°37'0 0.0
2017-Sep-17 21:00N 49°39' W 001°37'0 0.0
2017-Sep-17 20:30N 49°39' W 001°37'0 0.0
2017-Sep-17 20:00N 49°39' W 001°37'0 0.0
2017-Sep-17 19:30N 49°39' W 001°37'0 0.0
2017-Sep-17 19:00N 49°39' W 001°37'0 0.0
2017-Sep-17 18:30N 49°39' W 001°37'0 0.0
2017-Sep-17 18:00N 49°39' W 001°37'0 0.0
2017-Sep-17 17:30N 49°39' W 001°37'0 0.0
2017-Sep-17 17:00N 49°39' W 001°37'0 0.0
2017-Sep-17 16:30N 49°39' W 001°37'0 0.0
2017-Sep-17 16:00N 49°39' W 001°37'0 0.0
2017-Sep-17 15:30N 49°39' W 001°37'0 0.0
2017-Sep-17 15:00N 49°39' W 001°37'0 0.0
2017-Sep-17 14:30N 49°39' W 001°37'0 0.0
2017-Sep-17 14:00N 49°39' W 001°37'0 0.0
2017-Sep-17 13:30N 49°39' W 001°37'0 0.0
2017-Sep-17 13:00N 49°39' W 001°37'0 0.0
2017-Sep-17 12:30N 49°39' W 001°37'0 0.0
2017-Sep-17 12:01N 49°39' W 001°37'0 0.0
2017-Sep-17 11:30N 49°39' W 001°37'0 0.0
2017-Sep-17 11:00N 49°39' W 001°37'0 0.0
2017-Sep-17 10:30N 49°39' W 001°37'0 0.0
2017-Sep-17 10:00N 49°39' W 001°37'0 0.0
2017-Sep-17 09:30N 49°39' W 001°37'0 0.0
2017-Sep-17 09:00N 49°39' W 001°37'0 0.0
2017-Sep-17 08:30N 49°39' W 001°37'0 0.0
2017-Sep-17 08:00N 49°39' W 001°37'0 0.0
2017-Sep-17 07:30N 49°39' W 001°37'0 0.0
2017-Sep-17 07:01N 49°39' W 001°37'0 0.0
2017-Sep-17 06:31N 49°39' W 001°37'0 0.0
2017-Sep-17 06:00N 49°39' W 001°37'0 0.0
2017-Sep-17 05:30N 49°39' W 001°37'4 7.7
2017-Sep-17 05:00N 49°42' W 001°41'2 3.7
2017-Sep-17 04:30N 49°43' W 001°43'2 4.1
2017-Sep-17 04:00N 49°44' W 001°46'2 4.7
2017-Sep-17 03:30N 49°45' W 001°49'2 4.9
2017-Sep-17 03:00N 49°46' W 001°53'123 7.7
2017-Sep-16 11:05N 48°41' W 004°34'111.1
2017-Sep-16 11:00N 48°41' W 004°35'510.9
2017-Sep-16 10:30N 48°39' W 004°43'510.8
2017-Sep-16 10:00N 48°36' W 004°49'510.4
2017-Sep-16 09:31N 48°30' W 004°50'510.3
2017-Sep-16 09:00N 48°25' W 004°50'611.5
2017-Sep-16 08:30N 48°20' W 004°48'510.3
2017-Sep-16 08:00N 48°15' W 004°46'510.1
2017-Sep-16 07:31N 48°10' W 004°46'510.1
2017-Sep-16 07:00N 48°05' W 004°46'510.1
2017-Sep-16 06:30N 47°60' W 004°43'43 9.4
2017-Sep-16 01:56N 47°34' W 003°52'4 9.7
2017-Sep-16 01:30N 47°33' W 003°46'5 9.7
2017-Sep-16 01:01N 47°32' W 003°40'5 9.6
2017-Sep-16 00:30N 47°30' W 003°33'5 9.5
2017-Sep-16 00:01N 47°29' W 003°26'5 9.4
2017-Sep-15 23:30N 47°27' W 003°19'5 9.4
2017-Sep-15 23:00N 47°26' W 003°13'5 9.3
2017-Sep-15 22:30N 47°23' W 003°07'60 9.7
2017-Sep-15 16:19N 46°38' W 002°08'3 9.8
2017-Sep-15 16:00N 46°36' W 002°05'5 9.7
2017-Sep-15 15:30N 46°31' W 002°02'5 9.7
2017-Sep-15 15:00N 46°27' W 001°60'5 9.8
2017-Sep-15 14:30N 46°23' W 001°57'5 9.7
2017-Sep-15 14:00N 46°18' W 001°54'47 9.9
2017-Sep-15 09:17N 45°37' W 001°22'3 9.2
2017-Sep-15 08:59N 45°38' W 001°18'4 8.8
2017-Sep-15 08:30N 45°40' W 001°13'5 9.2
2017-Sep-15 07:59N 45°38' W 001°07'4 9.0
2017-Sep-15 07:30N 45°34' W 001°03'1 1.7
2017-Sep-15 06:59N 45°34' W 001°03'0 0.0
2017-Sep-15 06:25N 45°34' W 001°03'0 0.0
2017-Sep-15 06:00N 45°34' W 001°03'0 0.0
2017-Sep-15 05:31N 45°34' W 001°03'0 0.0
2017-Sep-15 05:00N 45°34' W 001°03'0 0.0
2017-Sep-15 04:31N 45°34' W 001°03'0 0.0
2017-Sep-15 04:00N 45°34' W 001°03'0 0.0
2017-Sep-15 03:30N 45°34' W 001°03'0 0.0
2017-Sep-15 03:00N 45°34' W 001°03'0 0.0
2017-Sep-15 02:31N 45°34' W 001°03'0 0.0
2017-Sep-15 01:59N 45°34' W 001°03'0 0.0
2017-Sep-15 01:31N 45°34' W 001°03'0 0.0
2017-Sep-15 01:01N 45°34' W 001°03'0 0.0
2017-Sep-15 00:30N 45°34' W 001°03'0 0.0
2017-Sep-15 00:01N 45°34' W 001°03'0 0.0
2017-Sep-14 23:30N 45°34' W 001°03'0 0.0
2017-Sep-14 23:01N 45°34' W 001°03'0 0.0
2017-Sep-14 22:30N 45°34' W 001°03'0 0.1
2017-Sep-14 22:00N 45°33' W 001°03'0 0.0
2017-Sep-14 21:31N 45°34' W 001°03'0 0.0
2017-Sep-14 21:00N 45°33' W 001°03'0 0.0
2017-Sep-14 20:30N 45°33' W 001°03'0 0.0
2017-Sep-14 20:00N 45°33' W 001°03'0 0.0
2017-Sep-14 19:30N 45°33' W 001°03'0 0.0
2017-Sep-14 19:01N 45°33' W 001°03'0 0.0
2017-Sep-14 18:30N 45°33' W 001°03'0 0.0
2017-Sep-14 18:00N 45°33' W 001°03'0 0.0
2017-Sep-14 17:31N 45°33' W 001°03'0 0.0
2017-Sep-14 17:01N 45°33' W 001°03'0 0.9
2017-Sep-14 16:30N 45°33' W 001°03'1 2.3
2017-Sep-14 16:00N 45°32' W 001°02'2 4.9
2017-Sep-14 15:31N 45°31' W 000°59'510.1
2017-Sep-14 15:00N 45°28' W 000°55'3 0.1
2017-Sep-13 15:49N 45°25' W 000°52'3 7.9
2017-Sep-13 15:29N 45°27' W 000°55'4 7.8
2017-Sep-13 15:00N 45°31' W 000°57'7 0.3
2017-Sep-12 19:35N 45°27' W 000°49'111.4
2017-Sep-12 19:30N 45°28' W 000°49'611.6
2017-Sep-12 19:01N 45°32' W 000°55'611.9
2017-Sep-12 18:30N 45°35' W 001°03'611.6
2017-Sep-12 17:59N 45°39' W 001°09'26 7.3
2017-Sep-12 14:24N 46°02' W 001°27'4 8.0
2017-Sep-12 13:53N 46°05' W 001°23'4 9.9
2017-Sep-12 13:30N 46°06' W 001°18'4 8.9
2017-Sep-12 13:01N 46°09' W 001°14'0 0.3
2017-Sep-12 12:30N 46°09' W 001°13'0 0.0
2017-Sep-12 12:00N 46°09' W 001°13'0 0.0
2017-Sep-12 11:31N 46°09' W 001°13'0 0.0
2017-Sep-12 11:01N 46°09' W 001°13'0 0.0
2017-Sep-12 10:30N 46°09' W 001°13'0 0.0
2017-Sep-12 10:00N 46°09' W 001°13'0 0.0
2017-Sep-12 09:30N 46°09' W 001°13'0 0.0
2017-Sep-12 09:00N 46°09' W 001°13'0 0.0
2017-Sep-12 08:31N 46°09' W 001°13'0 0.0
2017-Sep-12 08:00N 46°09' W 001°13'0 0.0
2017-Sep-12 07:30N 46°09' W 001°13'0 0.0
2017-Sep-12 07:01N 46°09' W 001°13'0 0.0
2017-Sep-12 06:30N 46°09' W 001°13'0 0.0
2017-Sep-12 06:00N 46°09' W 001°13'0 0.0
2017-Sep-12 05:31N 46°09' W 001°13'0 0.0
2017-Sep-12 05:01N 46°09' W 001°13'0 0.0
2017-Sep-12 04:31N 46°09' W 001°13'0 0.0
2017-Sep-12 04:00N 46°09' W 001°13'0 0.0
2017-Sep-12 03:30N 46°09' W 001°13'0 0.0
2017-Sep-12 03:01N 46°09' W 001°13'0 0.0
2017-Sep-12 02:30N 46°09' W 001°13'0 0.0
2017-Sep-12 02:00N 46°09' W 001°13'0 0.0
2017-Sep-12 01:30N 46°09' W 001°13'0 0.0
2017-Sep-12 01:00N 46°09' W 001°13'0 0.0
2017-Sep-12 00:30N 46°09' W 001°13'0 0.0
2017-Sep-12 00:00N 46°09' W 001°13'0 0.0
2017-Sep-11 23:31N 46°09' W 001°13'0 0.0
2017-Sep-11 23:01N 46°09' W 001°13'0 0.0
2017-Sep-11 22:31N 46°09' W 001°13'0 0.0
2017-Sep-11 22:01N 46°09' W 001°13'0 0.0
2017-Sep-11 21:31N 46°09' W 001°13'0 0.0
2017-Sep-11 21:00N 46°09' W 001°13'0 0.0
2017-Sep-11 20:31N 46°09' W 001°13'0 0.0
2017-Sep-11 20:01N 46°09' W 001°13'0 0.0
2017-Sep-11 19:31N 46°09' W 001°13'1 2.0
2017-Sep-11 19:01N 46°08' W 001°15'5 9.4
2017-Sep-11 18:30N 46°06' W 001°20'29 7.5
2017-Sep-11 14:38N 45°37' W 001°21'1 8.0
2017-Sep-11 14:30N 45°37' W 001°20'5 9.6
2017-Sep-11 14:00N 45°39' W 001°14'510.6
2017-Sep-11 13:30N 45°38' W 001°07'611.7
2017-Sep-11 13:00N 45°33' W 001°02'612.4
2017-Sep-11 12:30N 45°29' W 000°56'  

Dump ship's entire track history